Saturday, February 24, 2018, 3:22 AM EST
Back to Local

KCJR, Culpeper, Culpeper County Airport

Location: Elkwood, VA, United States Lat: 38.527
Local Time: 3:22 AM EST ( 8:22 GMT) Lon: -77.859
Time Zone: US/Eastern Elev: 311 ft

Show me the last for .
Show Coded

Time T Td Feel RH Dir Speed Gust Alt SLP Vis Weather Sky Remarks
2018-02-24 02:55 49 48 - 94 - Calm - 30.19 - 4 BR OVC003 None
2018-02-24 02:35 49 48 - 94 - Calm - 30.20 - 5 BR OVC003 None
2018-02-24 02:15 49 47 - 93 - Calm - 30.20 - 5 BR OVC005 None
2018-02-24 01:55 49 48 - 93 - Calm - 30.21 - 7 OVC005 None
2018-02-24 01:35 49 47 - 94 - Calm - 30.22 - 7 OVC005 None
2018-02-24 01:15 49 47 - 94 - Calm - 30.22 - 7 OVC007 None
2018-02-24 00:55 48 46 47 94 170° 3 - 30.23 - 5 BR OVC007 6-hr Min Temp (1am): 47.8°F
6-hr Max Temp (1am): 50.4°F
2018-02-24 00:35 49 47 - 93 - Calm - 30.24 - 5 BR OVC007 None
2018-02-24 00:15 50 47 - 92 - Calm - 30.24 - 7 OVC007 None
2018-02-23 23:50 50 48 - 92 170° 5 - 30.24 - 7 OVC005 24-hr Min Temp (12am): 41.0°F
24-hr Max Temp (12am): 50.4°F
2018-02-23 23:35 50 48 - 92 - Calm - 30.24 - 7 OVC005 None
2018-02-23 23:15 50 48 - 91 200° 3 - 30.25 - 7 OVC005 None
2018-02-23 22:50 50 48 - 90 - Calm - 30.26 - 7 OVC007 None
2018-02-23 22:35 50 47 - 90 200° 6 - 30.26 - 10 OVC007 None
2018-02-23 22:15 50 47 48 90 190° 5 - 30.27 - 10 OVC007 None
2018-02-23 21:55 50 47 48 88 180° 5 - 30.28 - 10 OVC007 None
2018-02-23 21:35 50 47 49 89 190° 3 - 30.29 - 10 OVC007 None
2018-02-23 21:15 49 46 48 88 190° 3 - 30.29 - 10 OVC007 None
2018-02-23 20:55 50 46 48 86 170° 5 - 30.30 - 10 OVC009 None
2018-02-23 20:35 50 46 - 86 - Calm - 30.30 - 10 OVC009 None
2018-02-23 20:15 50 46 48 85 180° 5 - 30.31 - 10 OVC009 None
2018-02-23 19:55 50 46 49 85 200° 3 - 30.31 - 10 OVC011 None
2018-02-23 19:35 49 45 48 84 190° 5 - 30.31 - 10 OVC011 None
2018-02-23 19:15 49 45 48 84 170° 5 - 30.32 - 10 OVC011 None
2018-02-23 18:55 49 45 48 84 190° 3 - 30.33 - 10 OVC011 6-hr Min Temp (7pm): 44.6°F
6-hr Max Temp (7pm): 49.5°F
2018-02-23 18:35 49 45 48 84 190° 3 - 30.33 - 10 OVC011 None
2018-02-23 18:15 49 45 48 84 190° 3 - 30.33 - 10 OVC011 None
2018-02-23 17:55 49 45 47 83 180° 6 - 30.33 - 10 OVC011 None
2018-02-23 17:35 49 44 48 82 180° 3 - 30.34 - 10 OVC011 None
2018-02-23 17:15 49 44 48 82 190° 5 - 30.34 - 10 OVC011 None
2018-02-23 16:55 49 44 46 81 180° 7 - 30.35 - 10 OVC011 None
2018-02-23 16:35 49 44 47 80 190° 6 - 30.36 - 10 OVC011 None
2018-02-23 16:15 49 44 46 81 180° 7 - 30.36 - 10 OVC011 None
2018-02-23 15:55 49 43 47 80 170° 6 - 30.36 - 10 OVC011 None
2018-02-23 15:35 48 43 45 81 190° 7 - 30.37 - 10 OVC009 None
2018-02-23 15:15 48 43 44 83 170° 7 - 30.38 - 10 OVC009 None
2018-02-23 14:55 47 43 45 84 180° 5 - 30.39 - 10 OVC007 None
2018-02-23 14:35 47 42 44 85 170° 5 - 30.41 - 10 OVC007 None
2018-02-23 14:15 47 42 44 84 180° 6 - 30.42 - 10 OVC007 None
2018-02-23 13:55 46 42 43 84 190° 6 - 30.43 - 10 OVC007 None
2018-02-23 13:35 46 42 44 85 190° 5 - 30.43 - 10 OVC007 None
2018-02-23 13:15 45 41 43 85 150° 5 - 30.45 - 10 OVC007 None
2018-02-23 12:55 45 41 43 86 150° 3 - 30.48 - 7 OVC007 6-hr Min Temp (1pm): 41.2°F
6-hr Max Temp (1pm): 44.8°F
2018-02-23 12:35 44 41 - 86 - Calm - 30.50 - 5 BR OVC007 None
2018-02-23 12:15 44 41 - 88 - Calm - 30.51 - 4 BR OVC007 None
2018-02-23 11:55 44 40 - 87 - Calm - 30.52 - 4 BR OVC007 None
2018-02-23 11:35 44 40 42 88 190° 3 - 30.53 - 5 BR OVC007 None
2018-02-23 11:15 44 40 - 88 - Calm - 30.53 - 4 BR OVC007 None
2018-02-23 10:55 43 40 - 89 - Calm - 30.55 - 5 BR OVC007 None
2018-02-23 10:35 43 40 - 88 - Calm - 30.56 - 5 BR OVC007 None
2018-02-23 10:15 43 39 41 86 80° 3 - 30.55 - 10 OVC007 None
2018-02-23 09:55 43 40 - 87 - Calm - 30.56 - 10 OVC007 None
2018-02-23 09:35 43 39 41 87 130° 3 - 30.57 - 10 OVC009 None
2018-02-23 09:15 42 40 - 90 - Calm - 30.58 - 10 OVC007 None
2018-02-23 08:55 42 40 - 91 - Calm - 30.58 - 10 OVC007 None
2018-02-23 08:35 42 40 - 92 - Calm - 30.58 - 5 BR OVC005 None
2018-02-23 08:15 42 40 - 93 - Calm - 30.59 - 7 BKN005 OVC012 None
2018-02-23 07:55 41 40 - 93 - Calm - 30.58 - 4 BR BKN005 OVC012 None
2018-02-23 07:35 41 40 - 93 - Calm - 30.58 - 2 BR OVC007 None
2018-02-23 07:15 41 40 - 93 - Calm - 30.58 - 2 BR OVC009 None
2018-02-23 06:55 41 40 - 93 - Calm - 30.58 - 4 BR OVC007 6-hr Precip Total (7am): 0.01"
24-hr Precip Total (7am): 0.07"
6-hr Min Temp (7am): 41.0°F
6-hr Max Temp (7am): 43.7°F
2018-02-23 06:35 41 39 - 93 - Calm - 30.58 - 4 BR OVC005 None
2018-02-23 06:15 41 39 - 93 - Calm - 30.58 - 4 BR OVC005 None
2018-02-23 05:55 41 39 - 93 - Calm - 30.57 - 4 RA OVC005 1-hr Precip Total: 0.01"
2018-02-23 05:35 41 40 39 93 60° 3 - 30.57 - 3 -RA BKN005 OVC011 None
2018-02-23 05:15 41 39 - 93 - Calm - 30.58 - 2 RA BKN005 OVC011 None
2018-02-23 04:55 41 39 - 93 - Calm - 30.58 - 2 BR BKN005 OVC009 None
2018-02-23 04:35 41 39 38 92 50° 5 - 30.59 - 4 BR OVC005 None
2018-02-23 04:15 42 40 - 92 - Calm - 30.58 - 4 BR OVC005 None
2018-02-23 03:55 42 40 - 92 - Calm - 30.58 - 5 BR OVC005 None
2018-02-23 03:35 42 40 40 92 80° 3 - 30.58 - 5 BR OVC005 None

Support USWX by starting your Amazon purchase here.